KMDT/MDT METAR and TAF weather

Enter ICAO airport designator
Station Type Date Time Source
KMDT METAR 2019/08/23 14:56 UTC NOAA

KMDT 231456Z 01003KT 10SM -RA FEW041 BKN095 OVC110 19/17 A3005 RMK A02 SLP175 P0001 60012 T01940167 53016


Station Type Date Time Source
KMDT Decoded METAR 2019/08/23 14:56 UTC NOAA

Station name not available
Aug 23, 2019 - 10:56 AM EDT / 2019.08.23 1456 UTC
Wind: from the N (010 degrees) at 3 MPH (3 KT):0
Visibility: 10 mile(s):0
Sky conditions: overcast
Weather: light rain
Precipitation last hour: 0.01 inches
Temperature: 66.9 F (19.4 C)
Dew Point: 62.1 F (16.7 C)
Relative Humidity: 84%
Pressure (altimeter): 30.05 in. Hg (1017 hPa)
Pressure tendency: 0.05 inches (1.6 hPa) higher than three hours ago
ob: KMDT 231456Z 01003KT 10SM -RA FEW041 BKN095 OVC110 19/17 A3005 RMK A02 SLP175 P0001 60012 T01940167 53016
cycle: 15

Station Type Date Time Source
KMDT TAF 2019/08/23 14:57 UTC NOAA

TAF
AMD KMDT 231354Z 2314/2412 31005KT 4SM -RA BR BKN050 OVC100
FM231530 32005KT 6SM -RA BR SCT050 OVC100
FM231900 33007KT P6SM SCT040 BKN100
FM240700 35006KT P6SM SCT100

Example: see airport list